sensor_id;sensor_type;location;lat;lon;timestamp;pressure;altitude;pressure_sealevel;temperature;humidity
75420;BME280;63998;52.488;13.428;2023-03-30T00:01:03;100632.19;;;10.64;64.99
75420;BME280;63998;52.488;13.428;2023-03-30T00:03:31;100628.72;;;10.65;65.57
75420;BME280;63998;52.488;13.428;2023-03-30T00:06:02;100627.88;;;10.67;65.35
75420;BME280;63998;52.488;13.428;2023-03-30T00:08:29;100628.72;;;10.68;65.93
75420;BME280;63998;52.488;13.428;2023-03-30T00:11:11;100633.94;;;10.56;66.18
75420;BME280;63998;52.488;13.428;2023-03-30T00:13:38;100627.00;;;10.46;66.65
75420;BME280;63998;52.488;13.428;2023-03-30T00:16:06;100635.66;;;10.35;67.17
75420;BME280;63998;52.488;13.428;2023-03-30T00:18:32;100621.78;;;10.39;67.72
75420;BME280;63998;52.488;13.428;2023-03-30T00:20:59;100627.00;;;10.33;67.94
75420;BME280;63998;52.488;13.428;2023-03-30T00:23:28;100618.34;;;10.33;67.86
75420;BME280;63998;52.488;13.428;2023-03-30T00:25:56;100620.06;;;10.29;68.41
75420;BME280;63998;52.488;13.428;2023-03-30T00:28:23;100613.13;;;10.19;68.73
75420;BME280;63998;52.488;13.428;2023-03-30T00:30:50;100607.06;;;10.26;69.16
75420;BME280;63998;52.488;13.428;2023-03-30T00:33:16;100605.34;;;10.28;69.08
75420;BME280;63998;52.488;13.428;2023-03-30T00:35:51;100606.22;;;10.24;69.29
75420;BME280;63998;52.488;13.428;2023-03-30T00:38:17;100603.63;;;10.23;69.26
75420;BME280;63998;52.488;13.428;2023-03-30T00:40:50;100594.91;;;10.15;70.20
75420;BME280;63998;52.488;13.428;2023-03-30T00:43:15;100599.25;;;10.16;70.00
75420;BME280;63998;52.488;13.428;2023-03-30T00:45:40;100592.38;;;10.19;69.77
75420;BME280;63998;52.488;13.428;2023-03-30T00:48:18;100594.09;;;10.20;70.26
75420;BME280;63998;52.488;13.428;2023-03-30T00:51:05;100583.72;;;10.20;70.28
75420;BME280;63998;52.488;13.428;2023-03-30T00:56:06;100570.75;;;10.22;70.44
75420;BME280;63998;52.488;13.428;2023-03-30T00:58:34;100566.41;;;10.19;70.29
75420;BME280;63998;52.488;13.428;2023-03-30T01:01:03;100559.50;;;10.21;70.30
75420;BME280;63998;52.488;13.428;2023-03-30T01:03:35;100558.63;;;10.22;70.37
75420;BME280;63998;52.488;13.428;2023-03-30T01:06:04;100555.97;;;10.16;70.64
75420;BME280;63998;52.488;13.428;2023-03-30T01:08:32;100542.19;;;10.23;70.13
75420;BME280;63998;52.488;13.428;2023-03-30T01:11:02;100531.81;;;10.35;70.31
75420;BME280;63998;52.488;13.428;2023-03-30T01:13:29;100530.94;;;10.42;70.36
75420;BME280;63998;52.488;13.428;2023-03-30T01:18:54;100518.78;;;10.55;70.42
75420;BME280;63998;52.488;13.428;2023-03-30T01:41:21;100487.66;;;10.34;70.40
75420;BME280;63998;52.488;13.428;2023-03-30T01:46:25;100477.28;;;10.19;70.84
75420;BME280;63998;52.488;13.428;2023-03-30T01:51:26;100461.72;;;10.20;71.23
75420;BME280;63998;52.488;13.428;2023-03-30T01:54:08;100457.38;;;10.13;71.35
75420;BME280;63998;52.488;13.428;2023-03-30T01:56:41;100466.91;;;10.11;71.25
75420;BME280;63998;52.488;13.428;2023-03-30T01:59:15;100456.50;;;10.16;71.21
75420;BME280;63998;52.488;13.428;2023-03-30T02:01:46;100458.22;;;10.15;71.64
75420;BME280;63998;52.488;13.428;2023-03-30T02:04:19;100460.88;;;10.24;71.72
75420;BME280;63998;52.488;13.428;2023-03-30T02:06:51;100466.06;;;10.24;70.67
75420;BME280;63998;52.488;13.428;2023-03-30T02:09:21;100482.47;;;10.11;71.50
75420;BME280;63998;52.488;13.428;2023-03-30T02:11:51;100471.22;;;10.06;71.46
75420;BME280;63998;52.488;13.428;2023-03-30T02:14:21;100466.03;;;10.03;72.04
75420;BME280;63998;52.488;13.428;2023-03-30T02:16:52;100455.66;;;10.06;72.02
75420;BME280;63998;52.488;13.428;2023-03-30T02:19:21;100452.19;;;10.07;72.03
75420;BME280;63998;52.488;13.428;2023-03-30T02:21:46;100455.66;;;10.06;71.49
75420;BME280;63998;52.488;13.428;2023-03-30T02:24:17;100453.91;;;10.05;71.99
75420;BME280;63998;52.488;13.428;2023-03-30T02:26:49;100447.03;;;10.01;72.24
75420;BME280;63998;52.488;13.428;2023-03-30T02:29:16;100433.16;;;10.02;72.48
75420;BME280;63998;52.488;13.428;2023-03-30T02:31:42;100431.41;;;10.04;72.48
75420;BME280;63998;52.488;13.428;2023-03-30T02:45:45;100414.97;;;10.28;71.37
75420;BME280;63998;52.488;13.428;2023-03-30T02:48:31;100404.63;;;10.23;71.46
75420;BME280;63998;52.488;13.428;2023-03-30T02:51:07;100403.72;;;10.33;71.40
75420;BME280;63998;52.488;13.428;2023-03-30T02:53:44;100396.81;;;10.26;71.23
75420;BME280;63998;52.488;13.428;2023-03-30T02:59:02;100396.81;;;10.29;71.77
75420;BME280;63998;52.488;13.428;2023-03-30T03:01:49;100386.47;;;10.20;71.95
75420;BME280;63998;52.488;13.428;2023-03-30T03:04:18;100379.50;;;10.16;71.76
75420;BME280;63998;52.488;13.428;2023-03-30T03:06:47;100376.06;;;10.23;71.85
75420;BME280;63998;52.488;13.428;2023-03-30T03:09:18;100376.03;;;10.26;71.61
75420;BME280;63998;52.488;13.428;2023-03-30T03:11:45;100370.84;;;10.16;71.60
75420;BME280;63998;52.488;13.428;2023-03-30T03:14:11;100369.16;;;10.19;71.47
75420;BME280;63998;52.488;13.428;2023-03-30T03:16:36;100362.22;;;10.21;72.27
75420;BME280;63998;52.488;13.428;2023-03-30T03:19:03;100360.47;;;10.14;72.23
75420;BME280;63998;52.488;13.428;2023-03-30T03:21:35;100364.78;;;10.17;71.68
75420;BME280;63998;52.488;13.428;2023-03-30T03:24:03;100363.09;;;10.22;72.16
75420;BME280;63998;52.488;13.428;2023-03-30T03:26:33;100365.66;;;10.17;72.15
75420;BME280;63998;52.488;13.428;2023-03-30T03:28:59;100362.22;;;10.06;72.52
75420;BME280;63998;52.488;13.428;2023-03-30T03:31:24;100351.88;;;9.94;73.11
75420;BME280;63998;52.488;13.428;2023-03-30T03:33:51;100351.00;;;9.90;72.61
75420;BME280;63998;52.488;13.428;2023-03-30T03:36:21;100352.78;;;9.87;73.45
75420;BME280;63998;52.488;13.428;2023-03-30T03:38:47;100343.28;;;9.77;73.21
75420;BME280;63998;52.488;13.428;2023-03-30T03:41:13;100342.41;;;9.73;73.54
75420;BME280;63998;52.488;13.428;2023-03-30T03:43:38;100345.84;;;9.66;74.35
75420;BME280;63998;52.488;13.428;2023-03-30T03:46:04;100336.34;;;9.76;73.73
75420;BME280;63998;52.488;13.428;2023-03-30T03:48:29;100332.91;;;9.77;74.12
75420;BME280;63998;52.488;13.428;2023-03-30T03:51:02;100327.69;;;9.83;74.08
75420;BME280;63998;52.488;13.428;2023-03-30T03:53:29;100322.47;;;9.92;73.38
75420;BME280;63998;52.488;13.428;2023-03-30T03:55:57;100319.00;;;9.99;73.30
75420;BME280;63998;52.488;13.428;2023-03-30T03:58:23;100308.63;;;9.99;73.74
75420;BME280;63998;52.488;13.428;2023-03-30T04:00:48;100301.69;;;10.07;73.31
75420;BME280;63998;52.488;13.428;2023-03-30T04:03:14;100307.72;;;10.14;73.26
75420;BME280;63998;52.488;13.428;2023-03-30T04:05:43;100299.09;;;10.12;73.18
75420;BME280;63998;52.488;13.428;2023-03-30T04:08:11;100299.91;;;10.15;73.17
75420;BME280;63998;52.488;13.428;2023-03-30T04:10:37;100288.66;;;10.18;72.89
75420;BME280;63998;52.488;13.428;2023-03-30T04:13:03;100286.06;;;10.16;72.89
75420;BME280;63998;52.488;13.428;2023-03-30T04:15:29;100270.53;;;10.22;72.81
75420;BME280;63998;52.488;13.428;2023-03-30T04:17:54;100270.53;;;10.19;72.45
75420;BME280;63998;52.488;13.428;2023-03-30T04:20:25;100274.00;;;10.12;72.48
75420;BME280;63998;52.488;13.428;2023-03-30T04:22:54;100275.69;;;10.16;73.03
75420;BME280;63998;52.488;13.428;2023-03-30T04:25:22;100264.44;;;10.14;72.76
75420;BME280;63998;52.488;13.428;2023-03-30T04:27:52;100265.31;;;10.16;72.70
75420;BME280;63998;52.488;13.428;2023-03-30T04:30:20;100267.03;;;10.17;72.30
75420;BME280;63998;52.488;13.428;2023-03-30T04:32:48;100265.31;;;10.16;72.82
75420;BME280;63998;52.488;13.428;2023-03-30T04:35:28;100267.09;;;10.11;72.31
75420;BME280;63998;52.488;13.428;2023-03-30T04:37:54;100261.03;;;10.07;72.68
75420;BME280;63998;52.488;13.428;2023-03-30T04:40:22;100261.91;;;10.11;73.07
75420;BME280;63998;52.488;13.428;2023-03-30T04:42:50;100262.75;;;10.08;72.88
75420;BME280;63998;52.488;13.428;2023-03-30T04:45:16;100263.63;;;10.09;72.83
75420;BME280;63998;52.488;13.428;2023-03-30T04:47:43;100262.75;;;10.13;73.36
75420;BME280;63998;52.488;13.428;2023-03-30T04:50:09;100266.22;;;10.04;73.19
75420;BME280;63998;52.488;13.428;2023-03-30T04:52:34;100262.75;;;10.05;73.04
75420;BME280;63998;52.488;13.428;2023-03-30T04:55:02;100253.25;;;10.03;72.88
75420;BME280;63998;52.488;13.428;2023-03-30T04:57:29;100248.06;;;10.09;73.17
75420;BME280;63998;52.488;13.428;2023-03-30T04:59:57;100258.44;;;10.12;73.19
75420;BME280;63998;52.488;13.428;2023-03-30T05:02:22;100274.00;;;10.12;73.47
75420;BME280;63998;52.488;13.428;2023-03-30T05:04:50;100258.41;;;10.15;72.36
75420;BME280;63998;52.488;13.428;2023-03-30T05:07:15;100256.66;;;10.14;72.60
75420;BME280;63998;52.488;13.428;2023-03-30T05:09:40;100252.34;;;10.15;72.68
75420;BME280;63998;52.488;13.428;2023-03-30T05:12:06;100241.09;;;10.14;72.18
75420;BME280;63998;52.488;13.428;2023-03-30T05:14:31;100236.75;;;10.18;72.44
75420;BME280;63998;52.488;13.428;2023-03-30T05:16:56;100234.19;;;10.19;72.30
75420;BME280;63998;52.488;13.428;2023-03-30T05:19:23;100230.69;;;10.26;71.92
75420;BME280;63998;52.488;13.428;2023-03-30T05:21:48;100222.03;;;10.29;72.58
75420;BME280;63998;52.488;13.428;2023-03-30T05:24:14;100211.56;;;10.39;72.54
75420;BME280;63998;52.488;13.428;2023-03-30T05:26:39;100197.72;;;10.40;71.74
75420;BME280;63998;52.488;13.428;2023-03-30T05:29:05;100194.25;;;10.41;72.09
75420;BME280;63998;52.488;13.428;2023-03-30T05:31:36;100190.81;;;10.42;71.42
75420;BME280;63998;52.488;13.428;2023-03-30T05:34:01;100183.88;;;10.44;71.50
75420;BME280;63998;52.488;13.428;2023-03-30T05:36:29;100181.28;;;10.41;71.63
75420;BME280;63998;52.488;13.428;2023-03-30T05:38:54;100196.03;;;10.36;70.82
75420;BME280;63998;52.488;13.428;2023-03-30T05:41:22;100204.78;;;10.23;71.32
75420;BME280;63998;52.488;13.428;2023-03-30T05:43:47;100210.81;;;10.18;71.66
75420;BME280;63998;52.488;13.428;2023-03-30T05:46:13;100212.56;;;10.19;71.50
75420;BME280;63998;52.488;13.428;2023-03-30T05:48:38;100204.72;;;10.26;71.55
75420;BME280;63998;52.488;13.428;2023-03-30T05:51:04;100192.66;;;10.25;71.63
75420;BME280;63998;52.488;13.428;2023-03-30T05:53:29;100192.66;;;10.25;71.50
75420;BME280;63998;52.488;13.428;2023-03-30T05:55:55;100185.72;;;10.15;71.54
75420;BME280;63998;52.488;13.428;2023-03-30T05:58:23;100182.28;;;10.22;71.77
75420;BME280;63998;52.488;13.428;2023-03-30T06:00:48;100193.53;;;10.21;71.69
75420;BME280;63998;52.488;13.428;2023-03-30T06:03:16;100190.06;;;10.22;71.13
75420;BME280;63998;52.488;13.428;2023-03-30T06:05:42;100185.72;;;10.15;71.23
75420;BME280;63998;52.488;13.428;2023-03-30T06:08:11;100177.09;;;10.22;72.07
75420;BME280;63998;52.488;13.428;2023-03-30T06:10:37;100166.69;;;10.16;71.59
75420;BME280;63998;52.488;13.428;2023-03-30T06:13:03;100164.97;;;10.15;71.34
75420;BME280;63998;52.488;13.428;2023-03-30T06:15:29;100163.25;;;10.19;71.82
75420;BME280;63998;52.488;13.428;2023-03-30T06:17:59;100161.53;;;10.19;71.48
75420;BME280;63998;52.488;13.428;2023-03-30T06:20:27;100152.06;;;10.04;71.40
75420;BME280;63998;52.488;13.428;2023-03-30T06:22:53;100154.72;;;9.94;72.04
75420;BME280;63998;52.488;13.428;2023-03-30T06:25:18;100149.56;;;9.85;71.96
75420;BME280;63998;52.488;13.428;2023-03-30T06:27:48;100152.97;;;9.94;72.64
75420;BME280;63998;52.488;13.428;2023-03-30T06:30:13;100142.56;;;10.02;72.42
75420;BME280;63998;52.488;13.428;2023-03-30T06:32:39;100135.63;;;10.04;72.26
75420;BME280;63998;52.488;13.428;2023-03-30T06:35:09;100140.81;;;10.07;72.13
75420;BME280;63998;52.488;13.428;2023-03-30T06:37:37;100149.41;;;10.15;72.18
75420;BME280;63998;52.488;13.428;2023-03-30T06:40:06;100151.13;;;10.22;71.62
75420;BME280;63998;52.488;13.428;2023-03-30T06:42:38;100149.34;;;10.27;71.55
75420;BME280;63998;52.488;13.428;2023-03-30T06:45:03;100152.78;;;10.35;71.54
75420;BME280;63998;52.488;13.428;2023-03-30T06:47:29;100147.56;;;10.38;71.73
75420;BME280;63998;52.488;13.428;2023-03-30T06:49:54;100153.59;;;10.39;71.46
75420;BME280;63998;52.488;13.428;2023-03-30T06:52:19;100152.78;;;10.38;71.18
75420;BME280;63998;52.488;13.428;2023-03-30T06:54:45;100139.81;;;10.32;71.58
75420;BME280;63998;52.488;13.428;2023-03-30T06:57:10;100144.13;;;10.33;71.30
75420;BME280;63998;52.488;13.428;2023-03-30T06:59:36;100141.56;;;10.29;71.30
75420;BME280;63998;52.488;13.428;2023-03-30T07:02:04;100127.69;;;10.37;71.72
75420;BME280;63998;52.488;13.428;2023-03-30T07:04:29;100128.50;;;10.39;71.58
75420;BME280;63998;52.488;13.428;2023-03-30T07:06:57;100133.78;;;10.30;71.98
75420;BME280;63998;52.488;13.428;2023-03-30T07:09:24;100129.50;;;10.22;71.79
75420;BME280;63998;52.488;13.428;2023-03-30T07:11:49;100119.91;;;10.31;71.95
75420;BME280;63998;52.488;13.428;2023-03-30T07:14:17;100119.03;;;10.34;71.83
75420;BME280;63998;52.488;13.428;2023-03-30T07:16:43;100119.81;;;10.50;71.26
75420;BME280;63998;52.488;13.428;2023-03-30T07:19:08;100116.19;;;10.66;71.10
75420;BME280;63998;52.488;13.428;2023-03-30T07:21:36;100101.44;;;10.72;70.65
75420;BME280;63998;52.488;13.428;2023-03-30T07:24:01;100106.47;;;10.88;71.13
75420;BME280;63998;52.488;13.428;2023-03-30T07:26:27;100100.34;;;10.93;70.13
75420;BME280;63998;52.488;13.428;2023-03-30T07:28:55;100094.91;;;11.14;70.26
75420;BME280;63998;52.488;13.428;2023-03-30T07:31:24;100103.53;;;11.23;69.85
75420;BME280;63998;52.488;13.428;2023-03-30T07:33:50;100096.44;;;11.37;69.64
75420;BME280;63998;52.488;13.428;2023-03-30T07:36:16;100093.56;;;11.57;68.67
75420;BME280;63998;52.488;13.428;2023-03-30T07:38:45;100085.75;;;11.58;68.03
75420;BME280;63998;52.488;13.428;2023-03-30T07:41:15;100088.22;;;11.69;67.73
75420;BME280;63998;52.488;13.428;2023-03-30T07:43:40;100084.66;;;11.77;67.17
75420;BME280;63998;52.488;13.428;2023-03-30T07:46:10;100090.56;;;11.88;67.13
75420;BME280;63998;52.488;13.428;2023-03-30T07:48:36;100081.81;;;11.96;66.72
75420;BME280;63998;52.488;13.428;2023-03-30T07:51:10;100083.41;;;12.06;66.26
75420;BME280;63998;52.488;13.428;2023-03-30T07:53:36;100081.44;;;12.20;66.07
75420;BME280;63998;52.488;13.428;2023-03-30T07:56:02;100074.22;;;12.37;65.98
75420;BME280;63998;52.488;13.428;2023-03-30T07:58:28;100068.09;;;12.41;64.85
75420;BME280;63998;52.488;13.428;2023-03-30T08:00:56;100069.66;;;12.50;64.84
75420;BME280;63998;52.488;13.428;2023-03-30T08:03:21;100070.41;;;12.59;64.34
75420;BME280;63998;52.488;13.428;2023-03-30T08:05:59;100075.47;;;12.66;64.30
75420;BME280;63998;52.488;13.428;2023-03-30T08:08:27;100080.69;;;12.66;63.41
75420;BME280;63998;52.488;13.428;2023-03-30T08:10:53;100080.75;;;12.63;63.75
75420;BME280;63998;52.488;13.428;2023-03-30T08:13:18;100070.09;;;12.75;63.90
75420;BME280;63998;52.488;13.428;2023-03-30T08:15:44;100065.66;;;12.81;63.17
75420;BME280;63998;52.488;13.428;2023-03-30T08:18:15;100062.69;;;13.01;63.18
75420;BME280;63998;52.488;13.428;2023-03-30T08:20:41;100066.16;;;13.00;62.88
75420;BME280;63998;52.488;13.428;2023-03-30T08:23:08;100059.09;;;13.07;62.44
75420;BME280;63998;52.488;13.428;2023-03-30T08:25:34;100057.53;;;12.98;62.35
75420;BME280;63998;52.488;13.428;2023-03-30T08:28:00;100056.50;;;13.07;62.14
75420;BME280;63998;52.488;13.428;2023-03-30T08:30:26;100040.59;;;13.22;62.07
75420;BME280;63998;52.488;13.428;2023-03-30T08:32:51;100035.16;;;13.33;61.67
75420;BME280;63998;52.488;13.428;2023-03-30T08:35:19;100030.63;;;13.41;61.35
75420;BME280;63998;52.488;13.428;2023-03-30T08:37:49;100024.94;;;13.62;60.86
75420;BME280;63998;52.488;13.428;2023-03-30T08:40:17;100033.09;;;13.85;60.33
75420;BME280;63998;52.488;13.428;2023-03-30T08:42:47;100028.31;;;14.06;59.69
75420;BME280;63998;52.488;13.428;2023-03-30T08:45:22;100028.66;;;14.26;59.21
75420;BME280;63998;52.488;13.428;2023-03-30T08:47:50;100034.66;;;14.31;58.30
75420;BME280;63998;52.488;13.428;2023-03-30T08:50:34;100040.59;;;14.36;57.47
75420;BME280;63998;52.488;13.428;2023-03-30T08:53:04;100043.84;;;14.47;57.02
75420;BME280;63998;52.488;13.428;2023-03-30T08:55:38;100035.88;;;14.52;56.75
75420;BME280;63998;52.488;13.428;2023-03-30T09:06:24;100013.47;;;14.76;56.20
75420;BME280;63998;52.488;13.428;2023-03-30T09:08:53;100021.97;;;14.84;56.27
75420;BME280;63998;52.488;13.428;2023-03-30T09:11:29;100034.94;;;14.88;55.86
75420;BME280;63998;52.488;13.428;2023-03-30T09:13:56;100024.34;;;14.93;55.85
75420;BME280;63998;52.488;13.428;2023-03-30T09:16:32;100011.91;;;15.01;56.14
75420;BME280;63998;52.488;13.428;2023-03-30T09:19:00;100026.19;;;14.89;55.61
75420;BME280;63998;52.488;13.428;2023-03-30T09:21:29;100017.66;;;14.83;56.00
75420;BME280;63998;52.488;13.428;2023-03-30T09:23:57;100015.56;;;14.95;56.13
75420;BME280;63998;52.488;13.428;2023-03-30T09:26:49;100011.19;;;14.96;56.28
75420;BME280;63998;52.488;13.428;2023-03-30T09:29:25;100018.63;;;15.09;55.99
75420;BME280;63998;52.488;13.428;2023-03-30T09:32:11;100019.41;;;15.13;56.00
75420;BME280;63998;52.488;13.428;2023-03-30T09:34:58;100008.69;;;15.22;55.65
75420;BME280;63998;52.488;13.428;2023-03-30T09:37:27;100015.63;;;15.23;55.59
75420;BME280;63998;52.488;13.428;2023-03-30T09:39:53;100018.72;;;15.08;55.98
75420;BME280;63998;52.488;13.428;2023-03-30T09:45:19;100026.78;;;14.99;56.48
75420;BME280;63998;52.488;13.428;2023-03-30T09:47:47;100025.06;;;14.98;56.48
75420;BME280;63998;52.488;13.428;2023-03-30T09:50:23;100022.47;;;14.98;56.69
75420;BME280;63998;52.488;13.428;2023-03-30T09:53:04;100022.22;;;15.07;56.53
75420;BME280;63998;52.488;13.428;2023-03-30T09:55:35;100030.75;;;15.14;56.49
75420;BME280;63998;52.488;13.428;2023-03-30T09:58:18;100024.50;;;15.19;56.28
75420;BME280;63998;52.488;13.428;2023-03-30T10:00:46;100029.97;;;15.10;56.38
75420;BME280;63998;52.488;13.428;2023-03-30T10:03:28;100035.31;;;15.07;56.53
75420;BME280;63998;52.488;13.428;2023-03-30T10:06:08;100041.47;;;15.04;56.64
75420;BME280;63998;52.488;13.428;2023-03-30T10:08:42;100026.72;;;15.02;57.15
75420;BME280;63998;52.488;13.428;2023-03-30T10:11:08;100020.41;;;15.09;57.36
75420;BME280;63998;52.488;13.428;2023-03-30T10:13:40;100030.84;;;15.09;57.37
75420;BME280;63998;52.488;13.428;2023-03-30T10:16:11;100031.72;;;15.09;57.28
75420;BME280;63998;52.488;13.428;2023-03-30T10:18:52;100033.59;;;15.06;57.43
75420;BME280;63998;52.488;13.428;2023-03-30T10:21:23;100031.88;;;15.05;57.32
75420;BME280;63998;52.488;13.428;2023-03-30T10:24:18;100046.09;;;14.95;57.41
75420;BME280;63998;52.488;13.428;2023-03-30T10:26:49;100044.38;;;14.94;57.43
75420;BME280;63998;52.488;13.428;2023-03-30T10:29:17;100049.50;;;14.97;57.82
75420;BME280;63998;52.488;13.428;2023-03-30T10:31:46;100052.94;;;14.99;57.75
75420;BME280;63998;52.488;13.428;2023-03-30T10:34:27;100043.31;;;15.01;57.83
75420;BME280;63998;52.488;13.428;2023-03-30T10:36:54;100037.19;;;15.02;57.90
75420;BME280;63998;52.488;13.428;2023-03-30T10:39:32;100033.25;;;15.18;58.02
75420;BME280;63998;52.488;13.428;2023-03-30T10:41:59;100024.50;;;15.19;58.01
75420;BME280;63998;52.488;13.428;2023-03-30T10:50:18;100023.03;;;15.38;57.61
75420;BME280;63998;52.488;13.428;2023-03-30T11:01:32;100005.06;;;15.85;56.75
75420;BME280;63998;52.488;13.428;2023-03-30T11:03:57;100005.94;;;15.86;56.25
75420;BME280;63998;52.488;13.428;2023-03-30T11:06:36;100004.91;;;15.91;56.44
75420;BME280;63998;52.488;13.428;2023-03-30T11:09:04;100020.75;;;15.87;56.56
75420;BME280;63998;52.488;13.428;2023-03-30T11:11:40;100010.31;;;15.85;56.63
75420;BME280;63998;52.488;13.428;2023-03-30T11:14:18;100011.38;;;15.79;56.61
75420;BME280;63998;52.488;13.428;2023-03-30T11:16:46;100011.41;;;15.78;57.19
75420;BME280;63998;52.488;13.428;2023-03-30T11:19:38;100011.34;;;15.81;57.09
75420;BME280;63998;52.488;13.428;2023-03-30T11:24:35;100020.59;;;15.91;56.58
75420;BME280;63998;52.488;13.428;2023-03-30T11:29:46;100011.63;;;15.98;56.47
75420;BME280;63998;52.488;13.428;2023-03-30T11:32:28;99983.31;;;16.09;56.57
75420;BME280;63998;52.488;13.428;2023-03-30T11:40:20;100000.97;;;16.31;56.07
75420;BME280;63998;52.488;13.428;2023-03-30T11:42:48;99985.03;;;16.63;55.33
75420;BME280;63998;52.488;13.428;2023-03-30T11:45:36;99972.72;;;16.90;54.68
75420;BME280;63998;52.488;13.428;2023-03-30T11:48:46;99974.38;;;16.93;54.77
75420;BME280;63998;52.488;13.428;2023-03-30T11:56:29;99957.72;;;16.94;54.71
75420;BME280;63998;52.488;13.428;2023-03-30T11:59:34;99951.88;;;17.09;54.68
75420;BME280;63998;52.488;13.428;2023-03-30T12:04:51;99952.00;;;17.29;53.93
75420;BME280;63998;52.488;13.428;2023-03-30T12:07:38;99939.78;;;17.28;53.67
75420;BME280;63998;52.488;13.428;2023-03-30T12:10:20;99924.00;;;17.51;53.78
75420;BME280;63998;52.488;13.428;2023-03-30T12:12:48;99931.09;;;17.93;53.24
75420;BME280;63998;52.488;13.428;2023-03-30T12:18:32;99904.03;;;18.11;51.85
75420;BME280;63998;52.488;13.428;2023-03-30T12:26:45;99875.75;;;18.77;50.46
75420;BME280;63998;52.488;13.428;2023-03-30T12:29:15;99880.09;;;18.97;49.79
75420;BME280;63998;52.488;13.428;2023-03-30T12:34:31;99889.53;;;19.20;49.44
75420;BME280;63998;52.488;13.428;2023-03-30T12:39:39;99857.16;;;18.80;49.18
75420;BME280;63998;52.488;13.428;2023-03-30T12:42:18;99854.72;;;18.77;49.65
75420;BME280;63998;52.488;13.428;2023-03-30T13:04:08;99799.81;;;19.60;47.12
75420;BME280;63998;52.488;13.428;2023-03-30T13:06:37;99796.84;;;19.66;46.60
75420;BME280;63998;52.488;13.428;2023-03-30T13:27:35;99780.22;;;18.38;50.40
75420;BME280;63998;52.488;13.428;2023-03-30T13:30:11;99777.81;;;18.13;50.61
75420;BME280;63998;52.488;13.428;2023-03-30T13:51:27;99808.06;;;17.60;51.86
75420;BME280;63998;52.488;13.428;2023-03-30T13:53:55;99819.09;;;17.48;52.06
75420;BME280;63998;52.488;13.428;2023-03-30T13:56:24;99843.91;;;17.41;52.13
75420;BME280;63998;52.488;13.428;2023-03-30T13:59:05;99890.28;;;17.41;53.39
75420;BME280;63998;52.488;13.428;2023-03-30T14:01:34;99913.72;;;16.52;57.36
75420;BME280;63998;52.488;13.428;2023-03-30T14:04:00;99945.34;;;15.40;64.73
75420;BME280;63998;52.488;13.428;2023-03-30T14:06:30;99945.69;;;14.35;68.67
75420;BME280;63998;52.488;13.428;2023-03-30T14:11:35;99920.06;;;13.83;72.67
75420;BME280;63998;52.488;13.428;2023-03-30T14:14:02;99930.09;;;13.63;73.47
75420;BME280;63998;52.488;13.428;2023-03-30T14:16:36;99950.72;;;13.37;73.45
75420;BME280;63998;52.488;13.428;2023-03-30T14:21:35;99937.53;;;13.01;75.67
75420;BME280;63998;52.488;13.428;2023-03-30T14:24:03;99942.63;;;13.07;75.99
75420;BME280;63998;52.488;13.428;2023-03-30T14:26:29;99944.38;;;13.07;75.08
75420;BME280;63998;52.488;13.428;2023-03-30T14:29:00;99941.78;;;13.07;75.12
75420;BME280;63998;52.488;13.428;2023-03-30T14:31:36;99942.59;;;13.10;75.99
75420;BME280;63998;52.488;13.428;2023-03-30T14:34:01;99927.06;;;13.04;75.50
75420;BME280;63998;52.488;13.428;2023-03-30T14:36:45;99928.81;;;13.02;75.38
75420;BME280;63998;52.488;13.428;2023-03-30T14:39:11;99933.25;;;12.99;75.38
75420;BME280;63998;52.488;13.428;2023-03-30T14:41:37;99911.72;;;12.89;75.15
75420;BME280;63998;52.488;13.428;2023-03-30T14:44:04;99914.25;;;12.93;75.43
75420;BME280;63998;52.488;13.428;2023-03-30T14:49:09;99908.38;;;12.84;75.77
75420;BME280;63998;52.488;13.428;2023-03-30T14:51:44;99915.66;;;12.67;75.96
75420;BME280;63998;52.488;13.428;2023-03-30T14:54:20;99913.94;;;12.66;75.99
75420;BME280;63998;52.488;13.428;2023-03-30T14:56:55;99916.56;;;12.64;75.78
75420;BME280;63998;52.488;13.428;2023-03-30T14:59:26;99920.25;;;12.54;76.79
75420;BME280;63998;52.488;13.428;2023-03-30T15:01:53;99923.00;;;12.46;77.07
75420;BME280;63998;52.488;13.428;2023-03-30T15:04:23;99923.06;;;12.43;78.05
75420;BME280;63998;52.488;13.428;2023-03-30T15:06:50;99930.22;;;12.32;78.01
75420;BME280;63998;52.488;13.428;2023-03-30T15:09:21;99917.41;;;12.21;79.27
75420;BME280;63998;52.488;13.428;2023-03-30T15:11:51;99923.34;;;12.28;79.02
75420;BME280;63998;52.488;13.428;2023-03-30T15:14:22;99928.53;;;12.28;79.74
75420;BME280;63998;52.488;13.428;2023-03-30T15:16:50;99928.50;;;12.31;80.02
75420;BME280;63998;52.488;13.428;2023-03-30T15:19:32;99924.88;;;12.38;79.78
75420;BME280;63998;52.488;13.428;2023-03-30T15:24:50;99941.53;;;12.31;79.65
75420;BME280;63998;52.488;13.428;2023-03-30T15:27:16;99937.19;;;12.30;79.59
75420;BME280;63998;52.488;13.428;2023-03-30T15:29:43;99932.03;;;12.27;80.10
75420;BME280;63998;52.488;13.428;2023-03-30T15:34:57;99957.31;;;12.22;79.15
75420;BME280;63998;52.488;13.428;2023-03-30T15:37:25;99941.72;;;12.20;79.28
75420;BME280;63998;52.488;13.428;2023-03-30T15:39:53;99960.88;;;12.16;79.56
75420;BME280;63998;52.488;13.428;2023-03-30T15:42:28;99964.53;;;12.06;79.78
75420;BME280;63998;52.488;13.428;2023-03-30T15:45:02;99962.97;;;11.96;79.85
75420;BME280;63998;52.488;13.428;2023-03-30T15:47:28;99969.84;;;11.99;80.28
75420;BME280;63998;52.488;13.428;2023-03-30T15:49:59;99969.09;;;11.91;80.41